Time;durP1;ratioP1;P1;durP2;ratioP2;P2;SDS_P1;SDS_P2;PMS_P1;PMS_P2;Temp;Humidity;BMP_temperature;BMP_pressure;BME280_temperature;BME280_humidity;BME280_pressure;Samples;Min_cycle;Max_cycle;Signal;HPM_P1;HPM_P2
2021/05/10 00:02:01;;;;;;;10.88;5.30;;;;;;;12.68;41.28;98308.84;5054471;28;20496;-80
2021/05/10 00:04:26;;;;;;;9.63;4.95;;;;;;;12.68;41.13;98311.59;5052974;28;20158;-82
2021/05/10 00:06:51;;;;;;;9.32;5.43;;;;;;;12.64;41.24;98316.88;5054361;28;20028;-81
2021/05/10 00:09:17;;;;;;;10.40;5.57;;;;;;;12.57;41.39;98308.28;5054216;28;20104;-81
2021/05/10 00:11:42;;;;;;;9.50;4.93;;;;;;;12.55;40.97;98299.53;5054185;28;20389;-81
2021/05/10 00:14:11;;;;;;;10.25;5.18;;;;;;;12.53;41.34;98306.44;5054203;28;20039;-81
2021/05/10 00:16:37;;;;;;;9.90;4.78;;;;;;;12.55;41.25;98310.53;5054125;28;20033;-81
2021/05/10 00:19:03;;;;;;;6.97;4.30;;;;;;;12.55;41.62;98306.97;5054067;28;20037;-81
2021/05/10 00:21:28;;;;;;;7.70;4.15;;;;;;;12.54;40.92;98316.34;5053183;28;20436;-81
2021/05/10 00:23:53;;;;;;;7.72;4.10;;;;;;;12.51;41.02;98307.56;5052758;28;20067;-81
2021/05/10 00:26:19;;;;;;;8.07;4.28;;;;;;;12.50;41.10;98302.41;5054008;28;20025;-81
2021/05/10 00:28:44;;;;;;;9.18;4.47;;;;;;;12.51;41.03;98304.81;5053974;28;20021;-81
2021/05/10 00:31:10;;;;;;;9.93;4.30;;;;;;;12.49;41.45;98304.31;5052802;28;20037;-82
2021/05/10 00:33:35;;;;;;;9.88;4.10;;;;;;;12.51;41.41;98298.53;5053856;28;20092;-80
2021/05/10 00:36:00;;;;;;;10.35;3.83;;;;;;;12.50;41.16;98299.66;5053367;28;20052;-81
2021/05/10 00:38:26;;;;;;;11.02;4.30;;;;;;;12.41;40.82;98296.84;5053674;28;20071;-80
2021/05/10 00:40:51;;;;;;;10.95;4.20;;;;;;;12.36;40.98;98300.53;5052420;28;20021;-81
2021/05/10 00:43:16;;;;;;;8.90;4.47;;;;;;;12.32;41.26;98290.47;5053514;28;20033;-81
2021/05/10 00:45:42;;;;;;;10.70;4.90;;;;;;;12.27;41.42;98296.88;5048052;28;20033;-80
2021/05/10 00:48:07;;;;;;;12.48;5.53;;;;;;;12.25;41.41;98288.13;5053453;28;20025;-80
2021/05/10 00:50:33;;;;;;;13.02;5.93;;;;;;;12.23;41.40;98295.88;5053649;28;20027;-80
2021/05/10 00:52:58;;;;;;;12.45;6.22;;;;;;;12.13;41.21;98290.63;5053519;28;20092;-82
2021/05/10 00:55:24;;;;;;;12.73;6.03;;;;;;;12.08;41.90;98288.81;5053814;28;20030;-81
2021/05/10 00:58:01;;;;;;;12.75;6.22;;;;;;;11.99;42.17;98286.00;5053407;28;20028;-81
2021/05/10 01:00:32;;;;;;;16.40;7.95;;;;;;;11.90;41.80;98288.63;5048396;28;20032;-81
2021/05/10 01:02:58;;;;;;;12.65;7.70;;;;;;;11.85;42.64;98297.00;5054983;28;20025;-80
2021/05/10 01:05:24;;;;;;;14.63;7.93;;;;;;;11.80;42.71;98290.81;5054560;28;20036;-81
2021/05/10 01:07:49;;;;;;;14.90;7.00;;;;;;;11.76;42.59;98298.84;5053217;28;20021;-81
2021/05/10 01:10:18;;;;;;;11.75;6.22;;;;;;;11.68;42.36;98294.06;5054449;28;20028;-81
2021/05/10 01:12:44;;;;;;;12.48;7.28;;;;;;;11.64;42.55;98288.38;5052995;28;20040;-81
2021/05/10 01:15:12;;;;;;;13.55;6.63;;;;;;;11.59;42.70;98285.72;5054463;28;20029;-81
2021/05/10 01:17:39;;;;;;;12.13;6.45;;;;;;;11.52;43.23;98285.34;5052961;28;20034;-80
2021/05/10 01:20:08;;;;;;;12.27;6.40;;;;;;;11.46;43.51;98279.94;5054290;28;20025;-81
2021/05/10 01:22:53;;;;;;;12.65;5.95;;;;;;;11.40;43.50;98277.63;5054410;28;20028;-81
2021/05/10 01:25:21;;;;;;;11.77;5.30;;;;;;;11.37;43.09;98270.81;5054236;28;20044;-81
2021/05/10 01:27:47;;;;;;;8.43;4.70;;;;;;;11.35;43.16;98270.31;5054460;28;20366;-81
2021/05/10 01:30:25;;;;;;;8.18;4.25;;;;;;;11.32;43.85;98268.19;5054239;28;20040;-81
2021/05/10 01:32:52;;;;;;;8.25;4.05;;;;;;;11.31;43.65;98267.34;5054029;28;20032;-81
2021/05/10 01:35:24;;;;;;;8.40;4.53;;;;;;;11.30;43.12;98273.94;5054105;28;20029;-81
2021/05/10 01:37:49;;;;;;;6.28;3.22;;;;;;;11.28;43.45;98269.91;5054013;28;20035;-81
2021/05/10 01:40:15;;;;;;;6.88;3.40;;;;;;;11.28;43.78;98267.97;5053979;28;20025;-81
2021/05/10 01:42:41;;;;;;;6.00;3.42;;;;;;;11.26;43.29;98264.69;5053886;28;20025;-81
2021/05/10 01:45:08;;;;;;;7.05;3.45;;;;;;;11.27;43.68;98263.59;5053713;28;20024;-81
2021/05/10 01:47:34;;;;;;;5.85;3.20;;;;;;;11.30;43.84;98271.22;5052929;28;20028;-81
2021/05/10 01:49:59;;;;;;;6.25;3.00;;;;;;;11.34;43.02;98265.09;5053837;28;20029;-81
2021/05/10 01:52:24;;;;;;;6.47;3.45;;;;;;;11.39;43.94;98267.75;5053765;28;20103;-81
2021/05/10 01:54:51;;;;;;;7.22;3.33;;;;;;;11.43;43.67;98263.28;5053847;28;20036;-81
2021/05/10 01:57:21;;;;;;;5.22;3.10;;;;;;;11.47;43.47;98264.28;5053764;28;20025;-80
2021/05/10 01:59:47;;;;;;;4.63;2.90;;;;;;;11.52;43.24;98269.69;5053861;28;20017;-81
2021/05/10 02:02:13;;;;;;;6.43;2.78;;;;;;;11.56;42.79;98264.38;5053551;28;20033;-81
2021/05/10 02:05:06;;;;;;;6.68;3.17;;;;;;;11.58;43.08;98262.97;5053337;28;20036;-81
2021/05/10 02:07:33;;;;;;;4.43;2.60;;;;;;;11.62;43.52;98268.66;5053595;28;20024;-80
2021/05/10 02:10:00;;;;;;;6.75;2.80;;;;;;;11.66;42.42;98269.66;5053448;28;20025;-81
2021/05/10 02:12:25;;;;;;;6.93;3.22;;;;;;;11.70;42.89;98275.34;5053410;28;20029;-81
2021/05/10 02:14:50;;;;;;;5.68;2.90;;;;;;;11.72;42.83;98268.44;5053349;28;20025;-80
2021/05/10 02:17:16;;;;;;;4.82;2.70;;;;;;;11.76;42.62;98271.34;5051733;28;20049;-80
2021/05/10 02:19:41;;;;;;;4.47;2.47;;;;;;;11.79;42.42;98267.19;5051729;28;20033;-81
2021/05/10 02:22:06;;;;;;;4.72;2.70;;;;;;;11.81;42.22;98263.00;5053118;28;20040;-81
2021/05/10 02:24:36;;;;;;;4.25;2.53;;;;;;;11.85;42.72;98266.75;5053008;28;20033;-81
2021/05/10 02:27:02;;;;;;;6.20;2.83;;;;;;;11.87;41.77;98263.69;5052948;28;20025;-81
2021/05/10 02:29:28;;;;;;;9.07;3.20;;;;;;;11.89;42.30;98261.44;5053172;28;20025;-81
2021/05/10 02:31:53;;;;;;;7.47;3.35;;;;;;;11.92;41.93;98255.34;5051712;28;20377;-82
2021/05/10 02:34:18;;;;;;;8.48;3.40;;;;;;;11.94;42.30;98260.53;5052982;28;20044;-81
2021/05/10 02:36:44;;;;;;;5.55;2.83;;;;;;;11.96;42.21;98256.34;5052676;28;20079;-81
2021/05/10 02:39:09;;;;;;;6.50;3.17;;;;;;;11.96;41.98;98252.78;5052831;28;20036;-81
2021/05/10 02:41:34;;;;;;;6.68;2.97;;;;;;;11.95;42.38;98256.66;5052810;28;20021;-81
2021/05/10 02:44:00;;;;;;;5.82;2.78;;;;;;;11.94;41.50;98263.28;5052728;28;20029;-80
2021/05/10 02:46:25;;;;;;;7.13;2.90;;;;;;;11.95;41.23;98264.91;5053126;28;20083;-81
2021/05/10 02:48:50;;;;;;;6.63;3.20;;;;;;;11.95;41.91;98270.41;5052745;28;20032;-81
2021/05/10 02:51:16;;;;;;;8.07;3.53;;;;;;;11.94;41.70;98258.59;5053002;28;20427;-81
2021/05/10 02:53:41;;;;;;;7.15;3.03;;;;;;;11.96;41.23;98269.28;5052679;28;20104;-81
2021/05/10 02:56:06;;;;;;;7.18;3.08;;;;;;;11.96;41.12;98270.09;5052965;28;20056;-81
2021/05/10 02:58:32;;;;;;;6.88;3.05;;;;;;;11.99;41.51;98268.66;5052471;28;20032;-81
2021/05/10 03:00:57;;;;;;;7.40;3.38;;;;;;;11.98;41.73;98261.53;5052649;28;20027;-80
2021/05/10 03:03:22;;;;;;;4.25;2.33;;;;;;;12.00;41.10;98264.84;5052451;28;20552;-81
2021/05/10 03:05:48;;;;;;;6.30;2.28;;;;;;;12.05;40.87;98264.69;5052471;28;20029;-81
2021/05/10 03:08:13;;;;;;;4.45;2.30;;;;;;;12.08;41.07;98266.00;5052251;28;20044;-81
2021/05/10 03:10:38;;;;;;;5.57;2.92;;;;;;;12.11;40.85;98268.94;5052365;28;20074;-81
2021/05/10 03:13:04;;;;;;;6.22;2.40;;;;;;;12.13;41.39;98274.94;5052864;28;20033;-81
2021/05/10 03:15:29;;;;;;;4.18;2.40;;;;;;;12.18;40.62;98272.06;5052489;28;20032;-82
2021/05/10 03:17:55;;;;;;;4.78;2.20;;;;;;;12.21;41.30;98273.41;5052144;28;20086;-82
2021/05/10 03:20:23;;;;;;;5.60;2.25;;;;;;;12.26;40.66;98266.97;5052419;28;20029;-81
2021/05/10 03:22:51;;;;;;;5.07;1.92;;;;;;;12.28;40.78;98271.00;5051038;28;20495;-81
2021/05/10 03:25:18;;;;;;;6.55;2.33;;;;;;;12.29;41.09;98267.13;5052216;28;20029;-81
2021/05/10 03:27:44;;;;;;;5.75;2.35;;;;;;;12.33;40.61;98259.88;5052296;28;20032;-81
2021/05/10 03:30:16;;;;;;;4.57;2.20;;;;;;;12.35;40.54;98257.66;5052292;28;20025;-81
2021/05/10 03:32:42;;;;;;;8.50;2.42;;;;;;;12.38;40.79;98258.97;5052142;28;20385;-81
2021/05/10 03:35:09;;;;;;;6.72;2.35;;;;;;;12.41;40.61;98258.34;5050925;28;20474;-80
2021/05/10 03:37:34;;;;;;;6.55;2.40;;;;;;;12.42;40.71;98246.22;5052344;28;20033;-82
2021/05/10 03:39:59;;;;;;;4.25;2.35;;;;;;;12.46;40.05;98254.66;5052351;28;20473;-81
2021/05/10 03:42:25;;;;;;;4.60;2.28;;;;;;;12.48;40.71;98255.94;5052326;28;20521;-81
2021/05/10 03:44:51;;;;;;;3.25;2.17;;;;;;;12.49;40.51;98259.53;5052167;28;20116;-81
2021/05/10 03:47:16;;;;;;;4.10;1.90;;;;;;;12.54;40.45;98264.06;5052161;28;20381;-81
2021/05/10 03:49:41;;;;;;;3.67;1.90;;;;;;;12.59;39.83;98263.94;5052264;28;20037;-81
2021/05/10 03:52:07;;;;;;;4.22;2.05;;;;;;;12.64;40.01;98263.81;5052099;28;20032;-81
2021/05/10 03:54:32;;;;;;;3.85;1.88;;;;;;;12.72;40.35;98278.75;5052241;28;20377;-81
2021/05/10 03:56:59;;;;;;;4.35;1.98;;;;;;;12.78;39.80;98270.06;5050963;28;20420;-80
2021/05/10 03:59:24;;;;;;;4.00;1.80;;;;;;;12.85;39.61;98277.03;5052029;28;20025;-81
2021/05/10 04:01:50;;;;;;;3.25;1.77;;;;;;;12.91;40.00;98267.50;5052413;28;20500;-81
2021/05/10 04:04:21;;;;;;;6.50;2.45;;;;;;;12.95;40.02;98274.84;5052258;28;20374;-81
2021/05/10 04:07:17;;;;;;;3.65;1.77;;;;;;;13.02;39.83;98271.63;5052267;28;20021;-81
2021/05/10 04:14:54;;;;;;;7.10;3.28;;;;;;;13.09;40.03;98260.97;5055950;28;20044;-80
2021/05/10 04:17:20;;;;;;;8.60;2.92;;;;;;;13.08;40.11;98264.00;5055585;28;20045;-80
2021/05/10 04:19:45;;;;;;;9.73;3.35;;;;;;;13.10;40.47;98264.50;5054780;28;20032;-80
2021/05/10 04:22:10;;;;;;;9.82;3.60;;;;;;;13.10;40.26;98259.84;5055695;28;20029;-80
2021/05/10 04:24:36;;;;;;;8.77;3.75;;;;;;;13.15;40.45;98266.34;5055397;28;20029;-80
2021/05/10 04:27:04;;;;;;;12.10;3.85;;;;;;;13.18;40.89;98268.44;5054117;28;20032;-81
2021/05/10 04:29:29;;;;;;;10.30;4.60;;;;;;;13.23;40.84;98273.81;5055188;28;20025;-80
2021/05/10 04:31:55;;;;;;;7.78;3.65;;;;;;;13.30;40.61;98265.88;5055147;28;20476;-81
2021/05/10 04:34:20;;;;;;;6.22;2.42;;;;;;;13.36;40.46;98261.06;5055093;28;20457;-80
2021/05/10 04:36:45;;;;;;;5.38;2.08;;;;;;;13.45;40.71;98258.34;5055180;28;20454;-80
2021/05/10 04:39:11;;;;;;;2.88;1.73;;;;;;;13.55;40.19;98264.38;5053613;28;20028;-81
2021/05/10 04:41:36;;;;;;;2.50;1.80;;;;;;;13.64;40.44;98264.41;5055077;28;20021;-80
2021/05/10 04:44:02;;;;;;;6.72;2.22;;;;;;;13.73;39.76;98261.66;5053868;28;20366;-80
2021/05/10 04:46:27;;;;;;;4.47;2.22;;;;;;;13.84;40.07;98264.91;5053347;28;20527;-81
2021/05/10 04:48:52;;;;;;;3.22;2.15;;;;;;;13.94;39.84;98261.00;5054879;28;20029;-81
2021/05/10 04:51:18;;;;;;;5.75;2.05;;;;;;;14.02;39.72;98256.66;5054756;28;20029;-81
2021/05/10 04:53:43;;;;;;;6.50;2.33;;;;;;;14.10;39.85;98264.91;5054956;28;20420;-81
2021/05/10 04:56:09;;;;;;;5.30;2.65;;;;;;;14.19;39.42;98262.16;5054672;28;20070;-80
2021/05/10 04:58:34;;;;;;;4.70;1.98;;;;;;;14.28;39.25;98259.38;5053422;28;20032;-82
2021/05/10 05:00:59;;;;;;;4.15;1.85;;;;;;;14.38;39.21;98261.00;5054602;28;20029;-81
2021/05/10 05:03:25;;;;;;;3.67;1.90;;;;;;;14.47;39.23;98261.78;5053336;28;20021;-82
2021/05/10 05:05:51;;;;;;;6.22;1.90;;;;;;;14.55;39.02;98258.22;5053212;28;20037;-81
2021/05/10 05:08:17;;;;;;;7.72;2.60;;;;;;;14.64;39.20;98257.38;5054607;28;20021;-81
2021/05/10 05:10:42;;;;;;;2.75;1.70;;;;;;;14.72;38.95;98257.38;5053332;28;20033;-80
2021/05/10 05:13:07;;;;;;;3.80;1.75;;;;;;;14.79;38.93;98245.03;5053163;28;20029;-81
2021/05/10 05:15:33;;;;;;;5.38;1.65;;;;;;;14.91;38.71;98253.44;5054428;28;20060;-81
2021/05/10 05:17:58;;;;;;;6.85;1.75;;;;;;;15.01;38.69;98255.03;5054227;28;20083;-81
2021/05/10 05:20:23;;;;;;;4.43;2.00;;;;;;;15.08;38.48;98249.81;5054265;28;20059;-80
2021/05/10 05:22:49;;;;;;;4.25;2.17;;;;;;;15.20;38.19;98259.34;5053744;28;20025;-81
2021/05/10 05:25:14;;;;;;;3.45;2.15;;;;;;;15.29;38.29;98257.34;5054765;28;20470;-81
2021/05/10 05:27:40;;;;;;;5.00;1.92;;;;;;;15.39;37.84;98256.16;5054367;28;20032;-80
2021/05/10 05:30:07;;;;;;;5.30;1.75;;;;;;;15.48;37.87;98254.19;5054335;28;20021;-82
2021/05/10 05:32:32;;;;;;;11.52;3.20;;;;;;;15.57;38.05;98246.63;5054270;28;20453;-81
2021/05/10 05:34:58;;;;;;;6.88;2.53;;;;;;;15.66;38.59;98246.59;5052930;28;20115;-81
2021/05/10 05:37:24;;;;;;;4.80;2.72;;;;;;;15.76;38.64;98237.06;5052773;28;20078;-81
2021/05/10 05:39:49;;;;;;;5.07;2.30;;;;;;;15.85;38.51;98245.31;5054004;28;20397;-81
2021/05/10 05:42:15;;;;;;;7.90;2.97;;;;;;;15.94;38.50;98243.31;5054350;28;20029;-80
2021/05/10 05:44:45;;;;;;;3.00;2.10;;;;;;;16.04;38.27;98239.31;5053788;28;20119;-81
2021/05/10 05:47:15;;;;;;;;;;;;;;;16.12;37.88;98243.16;5052808;28;20039;-81
2021/05/10 05:49:41;;;;;;;4.25;2.00;;;;;;;16.20;37.63;98242.28;5056432;28;20008;-81
2021/05/10 05:52:07;;;;;;;4.75;2.00;;;;;;;16.30;37.63;98252.94;5055545;28;20052;-81
2021/05/10 05:54:33;;;;;;;3.20;1.90;;;;;;;16.41;36.91;98247.78;5055236;28;20025;-78
2021/05/10 05:56:59;;;;;;;4.78;1.98;;;;;;;16.50;36.69;98248.50;5053720;28;20496;-80
2021/05/10 05:59:24;;;;;;;3.40;1.80;;;;;;;16.58;36.83;98241.25;5052814;28;20056;-80
2021/05/10 06:01:50;;;;;;;2.00;1.58;;;;;;;16.66;36.35;98234.03;5053872;28;20040;-80
2021/05/10 06:04:15;;;;;;;3.83;2.03;;;;;;;16.75;36.00;98231.97;5054982;28;20037;-80
2021/05/10 06:06:41;;;;;;;4.47;2.25;;;;;;;16.86;36.20;98237.06;5056494;28;20070;-81
2021/05/10 06:09:08;;;;;;;4.68;2.15;;;;;;;16.93;36.51;98238.09;5053926;28;20035;-77
2021/05/10 06:11:34;;;;;;;3.53;1.75;;;;;;;17.03;36.36;98230.53;5053868;28;20025;-81
2021/05/10 06:14:00;;;;;;;3.35;2.25;;;;;;;17.14;35.87;98226.16;5054515;28;20033;-82
2021/05/10 06:16:32;;;;;;;3.15;1.90;;;;;;;17.24;35.66;98222.94;5054895;28;20108;-81
2021/05/10 06:18:57;;;;;;;2.90;2.00;;;;;;;17.31;35.40;98238.97;5057564;28;20048;-81
2021/05/10 06:21:23;;;;;;;5.32;2.80;;;;;;;17.43;35.18;98231.81;5056465;28;20159;-81
2021/05/10 06:23:50;;;;;;;5.10;1.70;;;;;;;17.51;35.53;98240.00;5054726;28;20029;-79
2021/05/10 06:26:15;;;;;;;4.03;1.70;;;;;;;17.60;34.89;98239.88;5052984;28;20036;-79
2021/05/10 06:28:41;;;;;;;5.13;2.00;;;;;;;17.69;34.88;98232.25;5053167;28;20358;-79
2021/05/10 06:31:08;;;;;;;5.03;1.73;;;;;;;17.80;34.80;98234.53;5052900;28;20036;-78
2021/05/10 06:33:33;;;;;;;2.55;1.75;;;;;;;17.89;34.42;98245.50;5052451;28;20021;-79
2021/05/10 06:52:08;;;;;;;1.92;1.50;;;;;;;19.18;32.50;98244.69;5016946;28;20298;-72
2021/05/10 06:54:33;;;;;;;3.60;2.20;;;;;;;19.22;32.71;98245.59;5021863;28;20125;-70
2021/05/10 06:56:59;;;;;;;2.92;1.90;;;;;;;19.25;32.77;98255.16;5020957;28;20018;-69
2021/05/10 06:59:24;;;;;;;2.78;1.48;;;;;;;19.28;31.86;98246.09;5021938;28;20036;-69
2021/05/10 07:01:49;;;;;;;3.53;1.40;;;;;;;19.32;32.24;98252.56;5021382;28;20536;-70
2021/05/10 07:04:15;;;;;;;2.65;1.50;;;;;;;19.34;32.09;98256.63;5038153;28;20017;-69
2021/05/10 07:06:42;;;;;;;4.75;2.13;;;;;;;19.38;31.82;98253.91;5048105;28;20541;-70
2021/05/10 07:09:07;;;;;;;7.35;1.70;;;;;;;19.42;31.31;98248.41;5048846;28;20021;-70
2021/05/10 07:11:33;;;;;;;6.68;2.00;;;;;;;19.46;31.52;98250.13;5048880;28;20201;-71
2021/05/10 07:13:59;;;;;;;5.00;1.70;;;;;;;19.51;31.56;98262.16;5035642;28;20108;-70
2021/05/10 07:16:25;;;;;;;4.70;1.60;;;;;;;19.52;31.66;98264.56;5027981;28;20018;-70
2021/05/10 07:18:50;;;;;;;3.83;1.70;;;;;;;19.57;31.79;98272.63;5026217;28;20032;-71
2021/05/10 07:21:16;;;;;;;3.63;1.70;;;;;;;19.61;31.58;98259.63;5027259;28;20419;-71
2021/05/10 07:23:51;;;;;;;4.97;2.22;;;;;;;19.69;32.05;98259.78;5028056;28;20026;-71
2021/05/10 07:26:18;;;;;;;5.10;1.83;;;;;;;19.76;32.03;98259.97;5035824;28;20010;-71
2021/05/10 07:28:44;;;;;;;4.05;2.10;;;;;;;19.82;31.74;98266.03;5043931;28;20136;-71
2021/05/10 07:31:09;;;;;;;4.28;1.52;;;;;;;19.85;31.36;98257.75;5028542;28;20057;-71
2021/05/10 07:33:34;;;;;;;4.43;2.35;;;;;;;19.88;31.22;98259.84;5038100;28;20104;-71
2021/05/10 07:36:00;;;;;;;3.15;1.50;;;;;;;19.92;31.43;98246.03;5046942;28;20033;-70
2021/05/10 07:38:25;;;;;;;4.15;2.20;;;;;;;20.01;31.65;98254.16;5030937;28;20016;-69
2021/05/10 07:40:51;;;;;;;4.25;1.40;;;;;;;20.10;31.59;98251.97;5030460;28;20088;-71
2021/05/10 07:43:17;;;;;;;3.53;1.45;;;;;;;20.16;30.58;98256.09;5042461;28;20017;-70
2021/05/10 07:45:42;;;;;;;3.40;1.42;;;;;;;20.19;30.72;98260.91;5048664;28;20025;-70
2021/05/10 08:01:39;;;;;;;2.42;1.52;;;;;;;21.36;29.38;98266.66;5105873;27;20370;-68
2021/05/10 08:04:04;;;;;;;2.95;1.50;;;;;;;21.34;29.37;98264.25;5097022;28;20397;-68
2021/05/10 08:06:30;;;;;;;3.80;1.90;;;;;;;21.36;29.42;98261.91;5091639;28;20020;-70
2021/05/10 08:08:55;;;;;;;3.25;2.20;;;;;;;21.37;29.47;98252.38;5077178;28;20029;-71
2021/05/10 08:11:21;;;;;;;3.42;2.08;;;;;;;21.40;29.15;98257.16;5091299;28;20111;-70
2021/05/10 08:13:46;;;;;;;2.45;1.70;;;;;;;21.47;29.50;98266.84;5109095;28;20028;-70
2021/05/10 08:16:11;;;;;;;1.92;1.48;;;;;;;21.46;28.82;98259.63;5107007;28;20020;-70
2021/05/10 08:18:41;;;;;;;5.57;3.10;;;;;;;21.48;29.25;98257.28;5109279;28;20030;-70
2021/05/10 08:21:07;;;;;;;3.22;1.70;;;;;;;21.52;29.73;98263.72;5109193;28;20031;-70
2021/05/10 08:23:32;;;;;;;3.50;1.83;;;;;;;21.56;29.38;98268.19;5109205;28;20533;-70
2021/05/10 08:25:57;;;;;;;2.42;1.70;;;;;;;21.58;29.52;98258.66;5109436;28;20060;-71
2021/05/10 08:28:23;;;;;;;4.25;1.48;;;;;;;21.60;29.22;98251.50;5107957;28;20020;-71
2021/05/10 08:30:48;;;;;;;4.10;1.58;;;;;;;21.60;28.63;98265.44;5109151;28;20024;-70
2021/05/10 08:33:14;;;;;;;3.33;1.60;;;;;;;21.64;29.20;98265.53;5109116;28;20102;-71
2021/05/10 08:35:39;;;;;;;2.28;1.50;;;;;;;21.66;28.77;98252.81;5109091;28;20020;-72
2021/05/10 08:38:04;;;;;;;1.90;1.35;;;;;;;21.68;28.59;98253.25;5109394;28;20046;-71
2021/05/10 08:40:31;;;;;;;3.13;1.60;;;;;;;21.70;28.51;98258.44;5107873;28;20036;-71
2021/05/10 08:42:58;;;;;;;3.97;1.50;;;;;;;21.71;28.54;98254.47;5109002;28;20637;-71
2021/05/10 08:45:24;;;;;;;3.42;1.60;;;;;;;21.73;28.26;98254.13;5108759;28;20039;-71
2021/05/10 08:47:51;;;;;;;2.70;2.20;;;;;;;21.78;28.40;98257.38;5108789;28;20019;-71
2021/05/10 08:50:16;;;;;;;3.30;1.45;;;;;;;21.84;28.03;98249.47;5108689;28;20039;-71
2021/05/10 08:52:43;;;;;;;4.18;1.45;;;;;;;21.88;28.22;98238.38;5108880;28;20028;-71
2021/05/10 08:55:13;;;;;;;4.70;2.10;;;;;;;21.97;28.25;98248.06;5108824;28;20696;-71
2021/05/10 08:57:38;;;;;;;3.60;1.63;;;;;;;22.02;28.23;98249.72;5108636;28;20024;-71
2021/05/10 09:00:04;;;;;;;2.53;1.50;;;;;;;22.08;28.20;98245.41;5108477;28;20044;-71
2021/05/10 09:02:31;;;;;;;5.47;1.77;;;;;;;22.12;28.37;98243.47;5095318;28;20060;-71
2021/05/10 09:05:16;;;;;;;2.90;1.60;;;;;;;22.20;28.51;98232.41;5093814;28;20111;-73
2021/05/10 09:07:42;;;;;;;2.85;1.25;;;;;;;22.27;28.67;98226.91;5095051;28;20051;-72
2021/05/10 09:10:11;;;;;;;3.28;1.83;;;;;;;22.38;28.93;98218.63;5095079;28;20074;-71
2021/05/10 09:12:47;;;;;;;3.92;1.90;;;;;;;22.44;28.15;98220.72;5095028;28;20020;-72
2021/05/10 09:15:16;;;;;;;2.22;1.50;;;;;;;22.51;28.69;98228.41;5094704;28;20027;-72
2021/05/10 09:17:50;;;;;;;4.75;1.60;;;;;;;22.58;28.80;98227.66;5093212;28;20469;-72
2021/05/10 09:20:24;;;;;;;3.28;1.40;;;;;;;22.59;28.27;98218.91;5094445;28;20031;-72
2021/05/10 09:22:54;;;;;;;3.47;1.60;;;;;;;22.66;28.02;98217.38;5081594;28;20452;-71
2021/05/10 09:25:31;;;;;;;2.53;1.60;;;;;;;22.73;28.54;98223.84;5074038;28;20025;-72
2021/05/10 09:28:18;;;;;;;2.17;1.33;;;;;;;22.82;27.97;98212.34;5074285;28;20487;-71
2021/05/10 09:31:05;;;;;;;2.17;1.40;;;;;;;22.92;26.02;98210.03;5071728;28;20031;-70
2021/05/10 09:33:31;;;;;;;2.97;1.50;;;;;;;22.99;26.57;98210.91;5072989;28;20099;-70
2021/05/10 09:35:58;;;;;;;4.05;1.73;;;;;;;23.09;27.07;98217.75;5073826;28;20138;-71
2021/05/10 09:38:29;;;;;;;3.00;1.38;;;;;;;23.18;27.07;98225.84;5074020;28;20027;-71
2021/05/10 09:41:05;;;;;;;6.60;1.67;;;;;;;23.28;26.76;98224.34;5074482;28;20055;-71
2021/05/10 09:43:36;;;;;;;6.07;2.72;;;;;;;23.36;24.56;98225.19;5073683;28;20451;-71
2021/05/10 09:46:12;;;;;;;5.45;1.30;;;;;;;23.44;25.12;98222.06;5070127;28;20148;-71
2021/05/10 09:48:42;;;;;;;2.22;1.17;;;;;;;23.49;24.74;98218.91;5070620;28;20485;-70
2021/05/10 09:51:12;;;;;;;2.97;1.08;;;;;;;23.55;25.44;98221.34;5073494;28;20119;-70
2021/05/10 09:53:42;;;;;;;1.95;0.98;;;;;;;23.64;25.65;98217.00;5069596;28;20029;-71
2021/05/10 09:59:03;;;;;;;3.10;1.20;;;;;;;23.81;24.89;98199.91;5074144;28;20382;-71
2021/05/10 10:01:47;;;;;;;3.42;1.40;;;;;;;23.86;25.14;98207.91;5073488;28;20050;-71
2021/05/10 10:04:14;;;;;;;3.35;1.15;;;;;;;23.93;24.40;98207.97;5073732;28;20032;-71
2021/05/10 10:06:40;;;;;;;2.33;1.13;;;;;;;23.99;24.65;98192.41;5073713;28;20103;-76
2021/05/10 10:09:06;;;;;;;2.28;1.10;;;;;;;24.07;23.68;98193.25;5073635;28;20107;-76
2021/05/10 10:11:31;;;;;;;4.65;1.20;;;;;;;24.17;23.54;98194.50;5073826;28;20089;-76
2021/05/10 10:13:58;;;;;;;3.65;1.20;;;;;;;24.29;23.37;98190.53;5072463;28;20521;-76
2021/05/10 10:16:25;;;;;;;1.52;1.08;;;;;;;24.36;23.53;98180.13;5073446;28;20032;-75
2021/05/10 10:18:52;;;;;;;3.40;1.27;;;;;;;24.49;23.09;98205.00;5073237;28;20466;-69
2021/05/10 10:21:20;;;;;;;2.80;1.27;;;;;;;24.58;24.01;98199.81;5073470;28;20051;-70
2021/05/10 10:23:58;;;;;;;2.57;0.97;;;;;;;24.71;24.78;98203.06;5073396;28;20481;-71
2021/05/10 10:26:25;;;;;;;2.20;1.20;;;;;;;24.77;23.04;98187.47;5073338;28;20275;-71
2021/05/10 10:28:51;;;;;;;4.45;1.17;;;;;;;24.88;23.64;98192.25;5073203;28;20113;-75
2021/05/10 10:31:23;;;;;;;4.10;1.17;;;;;;;24.99;23.72;98189.50;5072070;28;20024;-74
2021/05/10 10:34:00;;;;;;;2.67;1.20;;;;;;;25.13;24.16;98186.66;5071960;28;20024;-75
2021/05/10 10:36:28;;;;;;;2.53;0.95;;;;;;;25.24;24.39;98181.06;5053702;28;20033;-74
2021/05/10 10:39:20;;;;;;;2.10;1.23;;;;;;;25.35;23.73;98181.06;5051112;28;20025;-75
2021/05/10 10:41:52;;;;;;;2.33;1.15;;;;;;;25.44;23.36;98181.47;5052329;28;20020;-75
2021/05/10 10:44:32;;;;;;;2.75;1.27;;;;;;;25.49;23.93;98188.69;5052539;28;20067;-75
2021/05/10 10:46:58;;;;;;;3.15;1.20;;;;;;;25.54;23.03;98188.25;5052555;28;20029;-75
2021/05/10 10:49:38;;;;;;;1.75;1.20;;;;;;;25.58;22.51;98185.44;5052500;28;20021;-76
2021/05/10 10:52:16;;;;;;;3.00;1.55;;;;;;;25.58;21.79;98191.88;5053128;28;20032;-76
2021/05/10 10:54:41;;;;;;;1.77;1.00;;;;;;;25.60;21.32;98188.66;5053011;28;20029;-76
2021/05/10 10:57:07;;;;;;;3.72;1.35;;;;;;;25.61;22.22;98179.00;5052785;28;20009;-76
2021/05/10 10:59:37;;;;;;;1.52;1.10;;;;;;;25.69;22.84;98175.00;5052448;28;20048;-75
2021/05/10 11:02:21;;;;;;;3.03;1.27;;;;;;;25.80;23.09;98178.56;5051517;28;20029;-75
2021/05/10 11:05:06;;;;;;;4.30;1.10;;;;;;;25.90;23.78;98179.75;5052665;28;20017;-76
2021/05/10 11:07:50;;;;;;;6.15;1.20;;;;;;;25.94;23.10;98188.97;5052543;28;20017;-76
2021/05/10 11:10:46;;;;;;;3.67;1.17;;;;;;;25.97;23.63;98187.31;5052718;28;20071;-75
2021/05/10 11:13:34;;;;;;;5.45;1.20;;;;;;;25.96;22.56;98192.16;5051575;28;20478;-76
2021/05/10 11:16:01;;;;;;;1.92;1.15;;;;;;;25.94;22.07;98188.97;5052467;28;20096;-76
2021/05/10 11:18:48;;;;;;;2.30;1.13;;;;;;;25.89;21.65;98182.94;5052569;28;20021;-75
2021/05/10 11:21:26;;;;;;;3.80;1.20;;;;;;;25.85;21.82;98191.38;5052470;28;20512;-76
2021/05/10 11:23:57;;;;;;;2.63;1.08;;;;;;;25.86;22.15;98173.31;5050742;28;20049;-76
2021/05/10 11:26:50;;;;;;;3.67;1.40;;;;;;;25.85;22.41;98174.53;5052263;28;20025;-76
2021/05/10 11:29:25;;;;;;;3.65;1.30;;;;;;;25.83;21.91;98183.38;5052165;28;20486;-75
2021/05/10 11:32:11;;;;;;;2.65;1.63;;;;;;;25.83;22.00;98182.56;5052464;28;20064;-76
2021/05/10 11:34:37;;;;;;;3.53;1.70;;;;;;;25.84;22.33;98176.56;5052082;28;20028;-75
2021/05/10 11:37:04;;;;;;;3.65;1.63;;;;;;;25.86;22.64;98174.16;5051977;28;20035;-75
2021/05/10 11:39:32;;;;;;;4.43;1.65;;;;;;;25.90;22.04;98178.91;5052268;28;20553;-75
2021/05/10 11:42:00;;;;;;;2.95;1.08;;;;;;;25.92;21.04;98179.31;5052106;28;20096;-76
2021/05/10 11:44:25;;;;;;;3.53;1.40;;;;;;;25.96;22.16;98186.53;5052045;28;20393;-76
2021/05/10 11:46:53;;;;;;;2.00;1.17;;;;;;;25.99;21.19;98194.16;5051048;28;20033;-75
2021/05/10 11:49:32;;;;;;;3.00;1.30;;;;;;;26.10;21.57;98185.69;5051982;28;20144;-75
2021/05/10 11:52:02;;;;;;;2.92;1.38;;;;;;;26.17;21.95;98175.66;5051965;28;20037;-72
2021/05/10 11:54:29;;;;;;;3.03;1.55;;;;;;;26.29;22.42;98175.16;5052005;28;20071;-72
2021/05/10 11:56:56;;;;;;;2.72;1.45;;;;;;;26.43;22.48;98161.03;5050806;28;20029;-72
2021/05/10 11:59:47;;;;;;;7.10;1.30;;;;;;;26.58;21.46;98175.81;5051831;28;20359;-72
2021/05/10 12:02:17;;;;;;;3.08;1.35;;;;;;;26.54;20.29;98172.22;5051964;28;20025;-72
2021/05/10 12:04:48;;;;;;;4.47;1.73;;;;;;;26.54;21.22;98169.41;5051987;28;20545;-72
2021/05/10 12:07:15;;;;;;;7.72;1.60;;;;;;;26.57;21.72;98162.97;5051891;28;20449;-72
2021/05/10 12:09:57;;;;;;;3.03;1.40;;;;;;;26.61;22.00;98174.19;5051847;28;20025;-73
2021/05/10 12:12:25;;;;;;;4.90;1.63;;;;;;;26.62;21.31;98170.16;5051922;28;20517;-72
2021/05/10 12:14:53;;;;;;;2.70;1.40;;;;;;;26.62;21.76;98163.72;5052051;28;20413;-72
2021/05/10 12:17:20;;;;;;;1.90;1.43;;;;;;;26.65;21.76;98165.72;5051730;28;20025;-73